createdAt,value
2023-05-05T00:04:13.911Z,101192.53
2023-05-05T00:14:22.966Z,101196.09
2023-05-05T00:24:24.970Z,101185.41
2023-05-05T00:34:26.905Z,101182.44
2023-05-05T00:44:41.194Z,101167.84
2023-05-05T00:54:43.181Z,101174.97
2023-05-05T01:04:52.913Z,101186.75
2023-05-05T01:15:32.795Z,101182.28
2023-05-05T01:25:54.864Z,101169.28
2023-05-05T01:36:22.987Z,101164.34
2023-05-05T01:46:25.217Z,101151.50
2023-05-05T01:56:29.124Z,101149.56
2023-05-05T02:06:56.842Z,101154.44
2023-05-05T02:16:59.959Z,101150.13
2023-05-05T02:27:06.507Z,101145.88
2023-05-05T02:37:12.847Z,101141.94
2023-05-05T02:47:39.524Z,101139.63
2023-05-05T02:57:56.246Z,101137.06
2023-05-05T03:08:28.559Z,101137.63
2023-05-05T03:18:32.062Z,101133.50
2023-05-05T03:28:33.923Z,101128.84
2023-05-05T03:38:35.867Z,101133.50
2023-05-05T03:48:37.777Z,101132.41
2023-05-05T03:58:39.718Z,101132.47
2023-05-05T04:08:44.686Z,101130.91
2023-05-05T04:18:55.566Z,101142.44
2023-05-05T04:29:02.707Z,101149.88
2023-05-05T04:39:04.718Z,101158.53
2023-05-05T04:49:16.250Z,101162.00
2023-05-05T04:59:36.772Z,101174.59
2023-05-05T05:10:04.298Z,101192.88
2023-05-05T05:20:08.193Z,101196.84
2023-05-05T05:30:10.809Z,101213.75
2023-05-05T05:40:13.221Z,101202.56
2023-05-05T05:50:15.748Z,101204.13
2023-05-05T06:00:17.949Z,101201.00
2023-05-05T06:10:27.901Z,101200.50
2023-05-05T06:20:39.676Z,101207.28
2023-05-05T06:30:44.671Z,101214.78
2023-05-05T06:40:53.710Z,101220.41
2023-05-05T06:51:06.978Z,101233.06
2023-05-05T07:01:09.090Z,101235.88
2023-05-05T07:11:12.114Z,101230.53
2023-05-05T07:21:16.101Z,101241.47
2023-05-05T07:31:26.077Z,101232.06
2023-05-05T07:41:28.091Z,101233.38
2023-05-05T07:51:34.404Z,101228.59
2023-05-05T08:01:39.553Z,101228.59
2023-05-05T08:11:41.487Z,101219.81
2023-05-05T08:21:49.440Z,101233.50
2023-05-05T08:31:51.495Z,101238.25
2023-05-05T08:41:53.453Z,101247.44
2023-05-05T08:52:05.704Z,101242.50
2023-05-05T09:02:10.324Z,101231.72
2023-05-05T09:12:30.819Z,101241.81
2023-05-05T09:22:39.011Z,101232.56
2023-05-05T09:32:50.335Z,101234.88
2023-05-05T09:43:02.163Z,101246.59
2023-05-05T09:53:04.492Z,101250.94
2023-05-05T10:03:08.561Z,101236.59
2023-05-05T10:13:19.857Z,101217.38
2023-05-05T10:23:24.256Z,101230.97
2023-05-05T10:33:35.976Z,101217.06
2023-05-05T10:43:44.328Z,101229.00
2023-05-05T10:54:10.561Z,101230.22
2023-05-05T11:04:23.440Z,101227.94
2023-05-05T11:14:35.737Z,101223.31
2023-05-05T11:24:39.948Z,101227.09
2023-05-05T11:34:52.044Z,101223.81
2023-05-05T11:45:19.963Z,101231.06
2023-05-05T11:55:23.229Z,101233.66
2023-05-05T12:05:25.438Z,101217.44
2023-05-05T12:15:33.868Z,101221.47
2023-05-05T12:25:39.350Z,101223.69
2023-05-05T12:35:51.562Z,101222.03
2023-05-05T12:46:12.857Z,101240.63
2023-05-05T12:56:40.828Z,101233.28
2023-05-05T13:06:48.700Z,101236.59
2023-05-05T13:16:53.276Z,101232.72
2023-05-05T13:26:56.089Z,101205.03
2023-05-05T13:37:01.285Z,101222.94
2023-05-05T13:47:03.537Z,101224.66
2023-05-05T13:57:20.926Z,101210.44
2023-05-05T14:07:28.916Z,101217.66
2023-05-05T14:17:30.898Z,101209.53
2023-05-05T14:27:32.847Z,101225.31
2023-05-05T14:37:35.070Z,101217.47
2023-05-05T14:47:37.073Z,101222.09
2023-05-05T14:57:44.177Z,101221.94
2023-05-05T15:07:48.577Z,101228.69
2023-05-05T15:17:51.708Z,101233.56
2023-05-05T15:27:54.155Z,101249.00
2023-05-05T15:37:56.181Z,101245.69
2023-05-05T15:47:58.212Z,101245.56
2023-05-05T15:58:00.172Z,101237.50
2023-05-05T16:08:13.119Z,101240.63
2023-05-05T16:18:16.284Z,101229.31
2023-05-05T16:28:18.835Z,101227.41
2023-05-05T16:38:21.964Z,101230.63
2023-05-05T16:48:28.061Z,101229.66
2023-05-05T16:58:32.667Z,101236.88
2023-05-05T17:09:00.199Z,101234.56
2023-05-05T17:19:11.135Z,101234.34
2023-05-05T17:29:15.607Z,101249.41
2023-05-05T17:39:22.518Z,101247.59
2023-05-05T17:49:25.579Z,101259.19
2023-05-05T17:59:27.420Z,101257.84
2023-05-05T18:09:31.646Z,101272.59
2023-05-05T18:19:46.627Z,101275.44
2023-05-05T18:29:54.983Z,101279.91
2023-05-05T18:39:56.982Z,101277.47
2023-05-05T18:50:00.208Z,101290.91
2023-05-05T19:00:03.380Z,101294.50
2023-05-05T19:10:11.763Z,101294.94
2023-05-05T19:20:17.468Z,101301.25
2023-05-05T19:30:19.429Z,101304.34
2023-05-05T19:40:21.456Z,101302.13
2023-05-05T19:50:28.036Z,101297.06
2023-05-05T20:00:30.077Z,101297.88
2023-05-05T20:10:32.203Z,101294.31
2023-05-05T20:20:35.295Z,101299.75
2023-05-05T20:30:37.359Z,101301.16
2023-05-05T20:40:42.231Z,101294.38
2023-05-05T20:50:44.370Z,101298.69
2023-05-05T21:00:47.534Z,101301.28
2023-05-05T21:10:49.559Z,101290.94
2023-05-05T21:20:54.660Z,101286.69
2023-05-05T21:31:19.894Z,101302.91
2023-05-05T21:41:18.521Z,101297.31
2023-05-05T21:51:20.505Z,101296.59
2023-05-05T22:01:22.457Z,101295.16
2023-05-05T22:11:24.491Z,101290.09
2023-05-05T22:21:27.782Z,101264.31
2023-05-05T22:31:44.159Z,101281.44
2023-05-05T22:41:46.858Z,101291.97
2023-05-05T22:51:48.914Z,101290.75
2023-05-05T23:01:50.850Z,101283.94
2023-05-05T23:11:52.806Z,101276.66
2023-05-05T23:21:55.194Z,101264.63
2023-05-05T23:31:57.762Z,101271.34
2023-05-05T23:41:59.686Z,101268.72
2023-05-05T23:52:01.701Z,101279.44
